sensor_id;sensor_type;location;lat;lon;timestamp;P1;durP1;ratioP1;P2;durP2;ratioP2
51286;SDS011;37364;46.974;18.916;2024-03-08T00:00:42;114.03;;;52.20;;
51286;SDS011;37364;46.974;18.916;2024-03-08T00:03:15;99.68;;;50.17;;
51286;SDS011;37364;46.974;18.916;2024-03-08T00:05:45;77.22;;;44.08;;
51286;SDS011;37364;46.974;18.916;2024-03-08T00:08:15;83.97;;;46.53;;
51286;SDS011;37364;46.974;18.916;2024-03-08T00:10:48;86.60;;;46.80;;
51286;SDS011;37364;46.974;18.916;2024-03-08T00:13:18;73.95;;;45.53;;
51286;SDS011;37364;46.974;18.916;2024-03-08T00:15:53;68.00;;;44.47;;
51286;SDS011;37364;46.974;18.916;2024-03-08T00:18:25;60.47;;;40.80;;
51286;SDS011;37364;46.974;18.916;2024-03-08T00:20:59;61.88;;;40.95;;
51286;SDS011;37364;46.974;18.916;2024-03-08T00:23:30;66.38;;;41.80;;
51286;SDS011;37364;46.974;18.916;2024-03-08T00:26:06;56.08;;;39.58;;
51286;SDS011;37364;46.974;18.916;2024-03-08T00:28:36;70.35;;;41.70;;
51286;SDS011;37364;46.974;18.916;2024-03-08T00:33:54;69.78;;;42.58;;
51286;SDS011;37364;46.974;18.916;2024-03-08T00:36:25;72.45;;;44.70;;
51286;SDS011;37364;46.974;18.916;2024-03-08T00:38:57;67.45;;;45.00;;
51286;SDS011;37364;46.974;18.916;2024-03-08T00:41:31;77.07;;;46.75;;
51286;SDS011;37364;46.974;18.916;2024-03-08T00:44:01;103.65;;;54.20;;
51286;SDS011;37364;46.974;18.916;2024-03-08T00:46:31;82.70;;;47.85;;
51286;SDS011;37364;46.974;18.916;2024-03-08T00:49:02;91.05;;;50.03;;
51286;SDS011;37364;46.974;18.916;2024-03-08T00:54:05;64.78;;;44.83;;
51286;SDS011;37364;46.974;18.916;2024-03-08T00:56:42;77.65;;;47.38;;
51286;SDS011;37364;46.974;18.916;2024-03-08T00:59:13;73.35;;;45.78;;
51286;SDS011;37364;46.974;18.916;2024-03-08T01:01:44;78.28;;;48.28;;
51286;SDS011;37364;46.974;18.916;2024-03-08T01:04:15;85.35;;;51.60;;
51286;SDS011;37364;46.974;18.916;2024-03-08T01:06:47;90.53;;;51.50;;
51286;SDS011;37364;46.974;18.916;2024-03-08T01:09:17;85.25;;;52.90;;
51286;SDS011;37364;46.974;18.916;2024-03-08T01:11:56;86.35;;;51.75;;
51286;SDS011;37364;46.974;18.916;2024-03-08T01:14:27;83.63;;;50.90;;
51286;SDS011;37364;46.974;18.916;2024-03-08T01:16:58;84.00;;;50.55;;
51286;SDS011;37364;46.974;18.916;2024-03-08T01:19:30;87.95;;;53.50;;
51286;SDS011;37364;46.974;18.916;2024-03-08T01:22:01;92.85;;;52.47;;
51286;SDS011;37364;46.974;18.916;2024-03-08T01:24:31;90.55;;;52.55;;
51286;SDS011;37364;46.974;18.916;2024-03-08T01:27:09;92.07;;;52.97;;
51286;SDS011;37364;46.974;18.916;2024-03-08T01:29:39;86.47;;;51.83;;
51286;SDS011;37364;46.974;18.916;2024-03-08T01:32:09;88.80;;;49.38;;
51286;SDS011;37364;46.974;18.916;2024-03-08T01:34:42;85.47;;;50.22;;
51286;SDS011;37364;46.974;18.916;2024-03-08T01:37:13;84.47;;;52.47;;
51286;SDS011;37364;46.974;18.916;2024-03-08T01:39:50;100.80;;;55.83;;
51286;SDS011;37364;46.974;18.916;2024-03-08T01:42:25;104.18;;;54.45;;
51286;SDS011;37364;46.974;18.916;2024-03-08T01:44:55;96.10;;;53.90;;
51286;SDS011;37364;46.974;18.916;2024-03-08T01:47:27;95.25;;;54.75;;
51286;SDS011;37364;46.974;18.916;2024-03-08T01:49:59;91.55;;;52.28;;
51286;SDS011;37364;46.974;18.916;2024-03-08T01:52:33;109.53;;;56.63;;
51286;SDS011;37364;46.974;18.916;2024-03-08T01:55:11;108.72;;;58.95;;
51286;SDS011;37364;46.974;18.916;2024-03-08T01:57:48;95.53;;;57.78;;
51286;SDS011;37364;46.974;18.916;2024-03-08T02:00:21;104.07;;;55.65;;
51286;SDS011;37364;46.974;18.916;2024-03-08T02:03:06;99.13;;;55.17;;
51286;SDS011;37364;46.974;18.916;2024-03-08T02:05:37;106.20;;;59.67;;
51286;SDS011;37364;46.974;18.916;2024-03-08T02:08:11;103.07;;;57.08;;
51286;SDS011;37364;46.974;18.916;2024-03-08T02:10:43;123.65;;;63.83;;
51286;SDS011;37364;46.974;18.916;2024-03-08T02:13:16;114.22;;;61.00;;
51286;SDS011;37364;46.974;18.916;2024-03-08T02:15:53;126.05;;;64.68;;
51286;SDS011;37364;46.974;18.916;2024-03-08T02:18:25;109.57;;;59.30;;
51286;SDS011;37364;46.974;18.916;2024-03-08T02:21:01;135.57;;;64.80;;
51286;SDS011;37364;46.974;18.916;2024-03-08T02:23:34;127.13;;;61.90;;
51286;SDS011;37364;46.974;18.916;2024-03-08T02:26:04;131.98;;;64.95;;
51286;SDS011;37364;46.974;18.916;2024-03-08T02:28:34;121.72;;;61.83;;
51286;SDS011;37364;46.974;18.916;2024-03-08T02:31:05;114.32;;;62.35;;
51286;SDS011;37364;46.974;18.916;2024-03-08T02:33:37;124.07;;;64.38;;
51286;SDS011;37364;46.974;18.916;2024-03-08T02:36:07;124.85;;;61.88;;
51286;SDS011;37364;46.974;18.916;2024-03-08T02:41:11;124.93;;;62.10;;
51286;SDS011;37364;46.974;18.916;2024-03-08T02:43:41;116.45;;;61.58;;
51286;SDS011;37364;46.974;18.916;2024-03-08T02:46:13;119.25;;;64.05;;
51286;SDS011;37364;46.974;18.916;2024-03-08T02:48:49;122.75;;;65.53;;
51286;SDS011;37364;46.974;18.916;2024-03-08T02:51:22;123.15;;;64.70;;
51286;SDS011;37364;46.974;18.916;2024-03-08T02:53:53;132.13;;;66.32;;
51286;SDS011;37364;46.974;18.916;2024-03-08T02:56:23;140.27;;;72.10;;
51286;SDS011;37364;46.974;18.916;2024-03-08T02:58:53;133.88;;;69.30;;
51286;SDS011;37364;46.974;18.916;2024-03-08T03:01:23;143.60;;;72.80;;
51286;SDS011;37364;46.974;18.916;2024-03-08T03:03:55;138.32;;;72.70;;
51286;SDS011;37364;46.974;18.916;2024-03-08T03:06:28;145.95;;;73.43;;
51286;SDS011;37364;46.974;18.916;2024-03-08T03:08:59;146.45;;;75.30;;
51286;SDS011;37364;46.974;18.916;2024-03-08T03:11:33;141.48;;;72.68;;
51286;SDS011;37364;46.974;18.916;2024-03-08T03:14:06;165.50;;;80.68;;
51286;SDS011;37364;46.974;18.916;2024-03-08T03:16:37;174.82;;;85.32;;
51286;SDS011;37364;46.974;18.916;2024-03-08T03:19:12;166.30;;;85.18;;
51286;SDS011;37364;46.974;18.916;2024-03-08T03:21:46;175.80;;;83.55;;
51286;SDS011;37364;46.974;18.916;2024-03-08T03:24:22;185.25;;;89.60;;
51286;SDS011;37364;46.974;18.916;2024-03-08T03:26:56;189.93;;;91.85;;
51286;SDS011;37364;46.974;18.916;2024-03-08T03:29:27;192.40;;;89.53;;
51286;SDS011;37364;46.974;18.916;2024-03-08T03:31:57;194.38;;;94.25;;
51286;SDS011;37364;46.974;18.916;2024-03-08T03:34:29;202.35;;;94.75;;
51286;SDS011;37364;46.974;18.916;2024-03-08T03:37:02;198.63;;;95.47;;
51286;SDS011;37364;46.974;18.916;2024-03-08T03:39:33;178.63;;;89.40;;
51286;SDS011;37364;46.974;18.916;2024-03-08T03:42:15;186.82;;;91.45;;
51286;SDS011;37364;46.974;18.916;2024-03-08T03:44:45;200.40;;;91.88;;
51286;SDS011;37364;46.974;18.916;2024-03-08T03:47:18;213.82;;;94.20;;
51286;SDS011;37364;46.974;18.916;2024-03-08T03:49:50;203.52;;;91.90;;
51286;SDS011;37364;46.974;18.916;2024-03-08T03:52:28;195.80;;;94.88;;
51286;SDS011;37364;46.974;18.916;2024-03-08T03:54:58;207.82;;;99.82;;
51286;SDS011;37364;46.974;18.916;2024-03-08T03:57:28;207.38;;;97.88;;
51286;SDS011;37364;46.974;18.916;2024-03-08T04:00:01;209.05;;;95.10;;
51286;SDS011;37364;46.974;18.916;2024-03-08T04:02:38;213.18;;;99.95;;
51286;SDS011;37364;46.974;18.916;2024-03-08T04:05:10;229.48;;;97.13;;
51286;SDS011;37364;46.974;18.916;2024-03-08T04:07:44;233.73;;;101.35;;
51286;SDS011;37364;46.974;18.916;2024-03-08T04:10:14;233.40;;;99.50;;
51286;SDS011;37364;46.974;18.916;2024-03-08T04:12:45;226.43;;;98.88;;
51286;SDS011;37364;46.974;18.916;2024-03-08T04:15:19;222.90;;;101.27;;
51286;SDS011;37364;46.974;18.916;2024-03-08T04:17:53;230.57;;;97.80;;
51286;SDS011;37364;46.974;18.916;2024-03-08T04:20:24;235.68;;;99.78;;
51286;SDS011;37364;46.974;18.916;2024-03-08T04:22:57;233.70;;;99.40;;
51286;SDS011;37364;46.974;18.916;2024-03-08T04:25:27;238.85;;;100.65;;
51286;SDS011;37364;46.974;18.916;2024-03-08T04:27:57;235.00;;;100.00;;
51286;SDS011;37364;46.974;18.916;2024-03-08T04:30:27;222.57;;;95.50;;
51286;SDS011;37364;46.974;18.916;2024-03-08T04:33:00;231.30;;;94.93;;
51286;SDS011;37364;46.974;18.916;2024-03-08T04:35:31;219.68;;;96.30;;
51286;SDS011;37364;46.974;18.916;2024-03-08T04:38:03;212.77;;;93.90;;
51286;SDS011;37364;46.974;18.916;2024-03-08T04:40:34;220.80;;;98.90;;
51286;SDS011;37364;46.974;18.916;2024-03-08T04:43:06;217.25;;;94.00;;
51286;SDS011;37364;46.974;18.916;2024-03-08T04:45:38;216.48;;;98.80;;
51286;SDS011;37364;46.974;18.916;2024-03-08T04:48:15;216.88;;;99.20;;
51286;SDS011;37364;46.974;18.916;2024-03-08T04:50:46;212.20;;;92.78;;
51286;SDS011;37364;46.974;18.916;2024-03-08T04:53:19;205.88;;;92.70;;
51286;SDS011;37364;46.974;18.916;2024-03-08T04:55:49;187.43;;;91.40;;
51286;SDS011;37364;46.974;18.916;2024-03-08T04:58:19;201.27;;;95.50;;
51286;SDS011;37364;46.974;18.916;2024-03-08T05:00:58;192.57;;;91.10;;
51286;SDS011;37364;46.974;18.916;2024-03-08T05:03:28;192.15;;;91.05;;
51286;SDS011;37364;46.974;18.916;2024-03-08T05:05:58;192.13;;;92.47;;
51286;SDS011;37364;46.974;18.916;2024-03-08T05:08:32;185.68;;;92.53;;
51286;SDS011;37364;46.974;18.916;2024-03-08T05:11:05;183.35;;;89.45;;
51286;SDS011;37364;46.974;18.916;2024-03-08T05:13:37;182.73;;;89.78;;
51286;SDS011;37364;46.974;18.916;2024-03-08T05:16:08;192.45;;;91.72;;
51286;SDS011;37364;46.974;18.916;2024-03-08T05:18:40;175.23;;;88.30;;
51286;SDS011;37364;46.974;18.916;2024-03-08T05:21:10;244.18;;;122.10;;
51286;SDS011;37364;46.974;18.916;2024-03-08T05:23:43;209.55;;;103.43;;
51286;SDS011;37364;46.974;18.916;2024-03-08T05:26:28;191.75;;;97.30;;
51286;SDS011;37364;46.974;18.916;2024-03-08T05:28:59;180.82;;;87.18;;
51286;SDS011;37364;46.974;18.916;2024-03-08T05:31:31;176.77;;;88.07;;
51286;SDS011;37364;46.974;18.916;2024-03-08T05:34:14;167.07;;;86.45;;
51286;SDS011;37364;46.974;18.916;2024-03-08T05:36:46;181.25;;;91.53;;
51286;SDS011;37364;46.974;18.916;2024-03-08T05:39:23;181.85;;;91.97;;
51286;SDS011;37364;46.974;18.916;2024-03-08T05:41:56;192.60;;;98.10;;
51286;SDS011;37364;46.974;18.916;2024-03-08T05:44:26;205.50;;;97.47;;
51286;SDS011;37364;46.974;18.916;2024-03-08T05:47:00;187.93;;;96.75;;
51286;SDS011;37364;46.974;18.916;2024-03-08T05:49:31;162.70;;;87.38;;
51286;SDS011;37364;46.974;18.916;2024-03-08T05:52:03;179.07;;;89.55;;
51286;SDS011;37364;46.974;18.916;2024-03-08T05:54:36;178.02;;;87.82;;
51286;SDS011;37364;46.974;18.916;2024-03-08T05:57:07;175.27;;;88.57;;
51286;SDS011;37364;46.974;18.916;2024-03-08T05:59:38;176.75;;;89.53;;
51286;SDS011;37364;46.974;18.916;2024-03-08T06:02:10;176.07;;;92.90;;
51286;SDS011;37364;46.974;18.916;2024-03-08T06:04:46;176.25;;;87.05;;
51286;SDS011;37364;46.974;18.916;2024-03-08T06:07:16;174.75;;;92.72;;
51286;SDS011;37364;46.974;18.916;2024-03-08T06:09:49;185.18;;;95.40;;
51286;SDS011;37364;46.974;18.916;2024-03-08T06:12:22;175.35;;;91.82;;
51286;SDS011;37364;46.974;18.916;2024-03-08T06:14:55;173.98;;;90.65;;
51286;SDS011;37364;46.974;18.916;2024-03-08T06:17:26;173.00;;;91.88;;
51286;SDS011;37364;46.974;18.916;2024-03-08T06:19:56;183.80;;;87.15;;
51286;SDS011;37364;46.974;18.916;2024-03-08T06:22:26;178.35;;;90.20;;
51286;SDS011;37364;46.974;18.916;2024-03-08T06:24:59;189.23;;;94.55;;
51286;SDS011;37364;46.974;18.916;2024-03-08T06:27:29;201.43;;;101.05;;
51286;SDS011;37364;46.974;18.916;2024-03-08T06:30:00;194.23;;;97.30;;
51286;SDS011;37364;46.974;18.916;2024-03-08T06:32:31;191.80;;;96.68;;
51286;SDS011;37364;46.974;18.916;2024-03-08T06:35:02;179.55;;;93.93;;
51286;SDS011;37364;46.974;18.916;2024-03-08T06:37:33;176.38;;;90.15;;
51286;SDS011;37364;46.974;18.916;2024-03-08T06:40:07;174.75;;;89.18;;
51286;SDS011;37364;46.974;18.916;2024-03-08T06:42:41;172.27;;;86.40;;
51286;SDS011;37364;46.974;18.916;2024-03-08T06:48:00;164.02;;;85.70;;
51286;SDS011;37364;46.974;18.916;2024-03-08T06:50:30;177.40;;;87.43;;
51286;SDS011;37364;46.974;18.916;2024-03-08T06:53:03;161.10;;;82.35;;
51286;SDS011;37364;46.974;18.916;2024-03-08T06:55:38;184.30;;;89.45;;
51286;SDS011;37364;46.974;18.916;2024-03-08T06:58:09;186.90;;;91.90;;
51286;SDS011;37364;46.974;18.916;2024-03-08T07:00:39;157.25;;;84.32;;
51286;SDS011;37364;46.974;18.916;2024-03-08T07:03:09;159.02;;;83.78;;
51286;SDS011;37364;46.974;18.916;2024-03-08T07:05:44;180.18;;;87.20;;
51286;SDS011;37364;46.974;18.916;2024-03-08T07:08:15;130.50;;;76.00;;
51286;SDS011;37364;46.974;18.916;2024-03-08T07:10:48;124.05;;;71.22;;
51286;SDS011;37364;46.974;18.916;2024-03-08T07:13:18;111.75;;;68.28;;
51286;SDS011;37364;46.974;18.916;2024-03-08T07:15:48;109.18;;;65.05;;
51286;SDS011;37364;46.974;18.916;2024-03-08T07:18:28;103.38;;;61.85;;
51286;SDS011;37364;46.974;18.916;2024-03-08T07:20:59;107.68;;;60.72;;
51286;SDS011;37364;46.974;18.916;2024-03-08T07:23:30;86.18;;;56.30;;
51286;SDS011;37364;46.974;18.916;2024-03-08T07:26:17;83.93;;;54.13;;
51286;SDS011;37364;46.974;18.916;2024-03-08T07:28:53;75.88;;;50.22;;
51286;SDS011;37364;46.974;18.916;2024-03-08T07:31:26;75.47;;;48.63;;
51286;SDS011;37364;46.974;18.916;2024-03-08T07:34:09;71.72;;;47.90;;
51286;SDS011;37364;46.974;18.916;2024-03-08T07:36:41;64.10;;;43.08;;
51286;SDS011;37364;46.974;18.916;2024-03-08T07:39:11;68.15;;;44.10;;
51286;SDS011;37364;46.974;18.916;2024-03-08T07:41:45;56.97;;;40.55;;
51286;SDS011;37364;46.974;18.916;2024-03-08T07:44:19;57.00;;;39.92;;
51286;SDS011;37364;46.974;18.916;2024-03-08T07:46:49;56.25;;;39.30;;
51286;SDS011;37364;46.974;18.916;2024-03-08T07:49:23;55.10;;;40.20;;
51286;SDS011;37364;46.974;18.916;2024-03-08T07:51:56;55.20;;;39.97;;
51286;SDS011;37364;46.974;18.916;2024-03-08T07:54:27;61.17;;;40.38;;
51286;SDS011;37364;46.974;18.916;2024-03-08T07:57:02;61.42;;;40.00;;
51286;SDS011;37364;46.974;18.916;2024-03-08T07:59:38;52.45;;;38.33;;
51286;SDS011;37364;46.974;18.916;2024-03-08T08:02:08;49.38;;;37.40;;
51286;SDS011;37364;46.974;18.916;2024-03-08T08:04:38;55.50;;;38.42;;
51286;SDS011;37364;46.974;18.916;2024-03-08T08:07:08;52.80;;;37.88;;
51286;SDS011;37364;46.974;18.916;2024-03-08T08:09:38;58.05;;;37.83;;
51286;SDS011;37364;46.974;18.916;2024-03-08T08:12:14;52.13;;;36.28;;
51286;SDS011;37364;46.974;18.916;2024-03-08T08:15:02;51.63;;;36.10;;
51286;SDS011;37364;46.974;18.916;2024-03-08T08:17:36;54.00;;;36.85;;
51286;SDS011;37364;46.974;18.916;2024-03-08T08:20:11;90.95;;;66.30;;
51286;SDS011;37364;46.974;18.916;2024-03-08T08:22:44;51.83;;;37.28;;
51286;SDS011;37364;46.974;18.916;2024-03-08T08:25:16;45.63;;;36.00;;
51286;SDS011;37364;46.974;18.916;2024-03-08T08:27:50;46.50;;;32.67;;
51286;SDS011;37364;46.974;18.916;2024-03-08T08:30:20;47.03;;;33.75;;
51286;SDS011;37364;46.974;18.916;2024-03-08T08:32:52;41.58;;;33.70;;
51286;SDS011;37364;46.974;18.916;2024-03-08T08:35:25;42.30;;;34.97;;
51286;SDS011;37364;46.974;18.916;2024-03-08T08:37:55;40.80;;;31.58;;
51286;SDS011;37364;46.974;18.916;2024-03-08T08:40:26;38.75;;;32.15;;
51286;SDS011;37364;46.974;18.916;2024-03-08T08:43:02;41.67;;;32.28;;
51286;SDS011;37364;46.974;18.916;2024-03-08T08:45:33;53.65;;;46.33;;
51286;SDS011;37364;46.974;18.916;2024-03-08T08:48:06;65.25;;;48.22;;
51286;SDS011;37364;46.974;18.916;2024-03-08T08:50:37;37.22;;;31.08;;
51286;SDS011;37364;46.974;18.916;2024-03-08T08:53:08;43.00;;;33.97;;
51286;SDS011;37364;46.974;18.916;2024-03-08T08:55:39;32.75;;;25.73;;
51286;SDS011;37364;46.974;18.916;2024-03-08T08:58:12;52.78;;;39.22;;
51286;SDS011;37364;46.974;18.916;2024-03-08T09:03:26;40.05;;;34.65;;
51286;SDS011;37364;46.974;18.916;2024-03-08T09:05:56;36.05;;;29.48;;
51286;SDS011;37364;46.974;18.916;2024-03-08T09:08:26;34.50;;;28.55;;
51286;SDS011;37364;46.974;18.916;2024-03-08T09:11:01;37.30;;;28.88;;
51286;SDS011;37364;46.974;18.916;2024-03-08T09:13:38;38.15;;;28.35;;
51286;SDS011;37364;46.974;18.916;2024-03-08T09:16:08;33.72;;;27.35;;
51286;SDS011;37364;46.974;18.916;2024-03-08T09:18:38;33.90;;;27.08;;
51286;SDS011;37364;46.974;18.916;2024-03-08T09:21:09;38.85;;;34.60;;
51286;SDS011;37364;46.974;18.916;2024-03-08T09:23:42;50.90;;;43.40;;
51286;SDS011;37364;46.974;18.916;2024-03-08T09:26:12;48.75;;;42.58;;
51286;SDS011;37364;46.974;18.916;2024-03-08T09:28:56;41.65;;;36.55;;
51286;SDS011;37364;46.974;18.916;2024-03-08T09:31:27;35.55;;;28.25;;
51286;SDS011;37364;46.974;18.916;2024-03-08T09:33:57;38.60;;;26.80;;
51286;SDS011;37364;46.974;18.916;2024-03-08T09:36:27;35.08;;;29.13;;
51286;SDS011;37364;46.974;18.916;2024-03-08T09:38:59;40.47;;;31.67;;
51286;SDS011;37364;46.974;18.916;2024-03-08T09:41:30;40.15;;;31.83;;
51286;SDS011;37364;46.974;18.916;2024-03-08T09:44:34;42.53;;;30.13;;
51286;SDS011;37364;46.974;18.916;2024-03-08T09:47:04;41.65;;;30.52;;
51286;SDS011;37364;46.974;18.916;2024-03-08T09:49:40;39.88;;;28.17;;
51286;SDS011;37364;46.974;18.916;2024-03-08T09:52:11;35.38;;;26.20;;
51286;SDS011;37364;46.974;18.916;2024-03-08T09:54:42;39.88;;;27.52;;
51286;SDS011;37364;46.974;18.916;2024-03-08T09:57:12;38.70;;;28.42;;
51286;SDS011;37364;46.974;18.916;2024-03-08T09:59:49;31.85;;;22.42;;
51286;SDS011;37364;46.974;18.916;2024-03-08T10:02:21;32.72;;;24.80;;
51286;SDS011;37364;46.974;18.916;2024-03-08T10:04:53;32.00;;;25.35;;
51286;SDS011;37364;46.974;18.916;2024-03-08T10:07:24;33.45;;;24.70;;
51286;SDS011;37364;46.974;18.916;2024-03-08T10:09:56;38.55;;;27.35;;
51286;SDS011;37364;46.974;18.916;2024-03-08T10:12:27;50.53;;;32.85;;
51286;SDS011;37364;46.974;18.916;2024-03-08T10:15:01;41.70;;;28.80;;
51286;SDS011;37364;46.974;18.916;2024-03-08T10:17:32;40.70;;;26.17;;
51286;SDS011;37364;46.974;18.916;2024-03-08T10:20:05;33.58;;;23.10;;
51286;SDS011;37364;46.974;18.916;2024-03-08T10:22:44;28.95;;;22.65;;
51286;SDS011;37364;46.974;18.916;2024-03-08T10:25:32;29.65;;;23.77;;
51286;SDS011;37364;46.974;18.916;2024-03-08T10:28:04;36.38;;;25.23;;
51286;SDS011;37364;46.974;18.916;2024-03-08T10:33:28;38.63;;;25.67;;
51286;SDS011;37364;46.974;18.916;2024-03-08T10:35:58;34.72;;;26.98;;
51286;SDS011;37364;46.974;18.916;2024-03-08T10:38:30;37.47;;;27.60;;
51286;SDS011;37364;46.974;18.916;2024-03-08T10:41:03;44.85;;;28.30;;
51286;SDS011;37364;46.974;18.916;2024-03-08T10:43:42;37.97;;;28.60;;
51286;SDS011;37364;46.974;18.916;2024-03-08T10:46:29;37.78;;;27.55;;
51286;SDS011;37364;46.974;18.916;2024-03-08T10:49:08;35.72;;;27.48;;
51286;SDS011;37364;46.974;18.916;2024-03-08T10:54:36;39.60;;;28.35;;
51286;SDS011;37364;46.974;18.916;2024-03-08T10:57:12;34.95;;;27.38;;
51286;SDS011;37364;46.974;18.916;2024-03-08T10:59:47;41.70;;;30.20;;
51286;SDS011;37364;46.974;18.916;2024-03-08T11:02:25;39.17;;;29.13;;
51286;SDS011;37364;46.974;18.916;2024-03-08T11:05:02;43.50;;;29.48;;
51286;SDS011;37364;46.974;18.916;2024-03-08T11:07:33;43.47;;;28.50;;
51286;SDS011;37364;46.974;18.916;2024-03-08T11:10:06;48.28;;;31.30;;
51286;SDS011;37364;46.974;18.916;2024-03-08T11:12:51;38.30;;;28.52;;
51286;SDS011;37364;46.974;18.916;2024-03-08T11:15:22;40.10;;;29.65;;
51286;SDS011;37364;46.974;18.916;2024-03-08T11:17:58;38.40;;;29.38;;
51286;SDS011;37364;46.974;18.916;2024-03-08T11:20:40;38.38;;;28.20;;
51286;SDS011;37364;46.974;18.916;2024-03-08T11:23:17;38.60;;;27.17;;
51286;SDS011;37364;46.974;18.916;2024-03-08T11:25:54;35.65;;;27.30;;
51286;SDS011;37364;46.974;18.916;2024-03-08T11:28:34;39.90;;;29.08;;
51286;SDS011;37364;46.974;18.916;2024-03-08T11:31:24;45.60;;;32.20;;
51286;SDS011;37364;46.974;18.916;2024-03-08T11:34:04;53.08;;;36.53;;
51286;SDS011;37364;46.974;18.916;2024-03-08T11:36:57;42.38;;;32.88;;
51286;SDS011;37364;46.974;18.916;2024-03-08T11:39:31;41.17;;;29.13;;
51286;SDS011;37364;46.974;18.916;2024-03-08T11:42:11;39.35;;;29.75;;
51286;SDS011;37364;46.974;18.916;2024-03-08T11:44:43;42.35;;;29.10;;
51286;SDS011;37364;46.974;18.916;2024-03-08T11:47:15;38.15;;;30.58;;
51286;SDS011;37364;46.974;18.916;2024-03-08T11:49:56;42.65;;;31.55;;
51286;SDS011;37364;46.974;18.916;2024-03-08T11:52:36;66.07;;;44.22;;
51286;SDS011;37364;46.974;18.916;2024-03-08T11:55:08;38.67;;;31.52;;
51286;SDS011;37364;46.974;18.916;2024-03-08T11:57:47;39.17;;;31.73;;
51286;SDS011;37364;46.974;18.916;2024-03-08T12:00:19;45.80;;;32.67;;
51286;SDS011;37364;46.974;18.916;2024-03-08T12:03:01;38.55;;;29.75;;
51286;SDS011;37364;46.974;18.916;2024-03-08T12:05:32;59.17;;;40.10;;
51286;SDS011;37364;46.974;18.916;2024-03-08T12:08:08;132.43;;;80.13;;
51286;SDS011;37364;46.974;18.916;2024-03-08T12:10:40;56.33;;;38.15;;
51286;SDS011;37364;46.974;18.916;2024-03-08T12:13:14;48.72;;;38.67;;
51286;SDS011;37364;46.974;18.916;2024-03-08T12:15:49;41.83;;;32.03;;
51286;SDS011;37364;46.974;18.916;2024-03-08T12:18:20;36.38;;;30.17;;
51286;SDS011;37364;46.974;18.916;2024-03-08T12:20:50;39.25;;;32.60;;
51286;SDS011;37364;46.974;18.916;2024-03-08T12:23:24;40.63;;;30.55;;
51286;SDS011;37364;46.974;18.916;2024-03-08T12:25:54;42.33;;;31.30;;
51286;SDS011;37364;46.974;18.916;2024-03-08T12:28:24;46.35;;;34.33;;
51286;SDS011;37364;46.974;18.916;2024-03-08T12:33:49;46.60;;;30.90;;
51286;SDS011;37364;46.974;18.916;2024-03-08T12:36:23;39.08;;;29.83;;
51286;SDS011;37364;46.974;18.916;2024-03-08T12:38:57;43.33;;;32.63;;
51286;SDS011;37364;46.974;18.916;2024-03-08T12:41:30;43.38;;;32.00;;
51286;SDS011;37364;46.974;18.916;2024-03-08T12:44:01;41.28;;;30.58;;
51286;SDS011;37364;46.974;18.916;2024-03-08T12:46:34;49.40;;;36.50;;
51286;SDS011;37364;46.974;18.916;2024-03-08T12:49:07;100.05;;;57.58;;
51286;SDS011;37364;46.974;18.916;2024-03-08T12:51:39;134.95;;;71.28;;
51286;SDS011;37364;46.974;18.916;2024-03-08T12:54:12;89.30;;;53.33;;
51286;SDS011;37364;46.974;18.916;2024-03-08T12:56:42;105.68;;;68.72;;
51286;SDS011;37364;46.974;18.916;2024-03-08T12:59:12;105.50;;;70.30;;
51286;SDS011;37364;46.974;18.916;2024-03-08T13:01:46;107.60;;;67.93;;
51286;SDS011;37364;46.974;18.916;2024-03-08T13:04:18;98.82;;;60.05;;
51286;SDS011;37364;46.974;18.916;2024-03-08T13:06:49;54.53;;;38.38;;
51286;SDS011;37364;46.974;18.916;2024-03-08T13:09:24;53.40;;;37.60;;
51286;SDS011;37364;46.974;18.916;2024-03-08T13:11:54;50.65;;;35.60;;
51286;SDS011;37364;46.974;18.916;2024-03-08T13:14:27;53.63;;;36.33;;
51286;SDS011;37364;46.974;18.916;2024-03-08T13:16:58;50.05;;;35.05;;
51286;SDS011;37364;46.974;18.916;2024-03-08T13:19:29;56.65;;;34.88;;
51286;SDS011;37364;46.974;18.916;2024-03-08T13:22:00;49.53;;;34.72;;
51286;SDS011;37364;46.974;18.916;2024-03-08T13:24:36;49.97;;;36.20;;
51286;SDS011;37364;46.974;18.916;2024-03-08T13:27:07;49.87;;;35.27;;
51286;SDS011;37364;46.974;18.916;2024-03-08T13:29:46;49.95;;;36.92;;
51286;SDS011;37364;46.974;18.916;2024-03-08T13:32:17;52.30;;;35.70;;
51286;SDS011;37364;46.974;18.916;2024-03-08T13:34:49;45.70;;;35.58;;
51286;SDS011;37364;46.974;18.916;2024-03-08T13:37:20;51.72;;;37.10;;
51286;SDS011;37364;46.974;18.916;2024-03-08T13:39:55;54.45;;;37.83;;
51286;SDS011;37364;46.974;18.916;2024-03-08T13:42:25;61.55;;;38.70;;
51286;SDS011;37364;46.974;18.916;2024-03-08T13:44:55;52.05;;;37.75;;
51286;SDS011;37364;46.974;18.916;2024-03-08T13:47:26;57.35;;;40.55;;
51286;SDS011;37364;46.974;18.916;2024-03-08T13:49:58;55.45;;;39.33;;
51286;SDS011;37364;46.974;18.916;2024-03-08T13:52:29;51.00;;;38.47;;
51286;SDS011;37364;46.974;18.916;2024-03-08T13:55:03;56.70;;;37.10;;
51286;SDS011;37364;46.974;18.916;2024-03-08T13:57:35;55.03;;;39.30;;
51286;SDS011;37364;46.974;18.916;2024-03-08T14:00:06;53.15;;;38.75;;
51286;SDS011;37364;46.974;18.916;2024-03-08T14:05:32;54.67;;;38.10;;
51286;SDS011;37364;46.974;18.916;2024-03-08T14:08:04;54.33;;;39.42;;
51286;SDS011;37364;46.974;18.916;2024-03-08T14:10:37;59.08;;;41.72;;
51286;SDS011;37364;46.974;18.916;2024-03-08T14:13:09;53.65;;;39.10;;
51286;SDS011;37364;46.974;18.916;2024-03-08T14:15:42;57.38;;;40.83;;
51286;SDS011;37364;46.974;18.916;2024-03-08T14:18:17;51.30;;;37.83;;
51286;SDS011;37364;46.974;18.916;2024-03-08T14:20:48;48.05;;;39.63;;
51286;SDS011;37364;46.974;18.916;2024-03-08T14:23:17;56.95;;;41.08;;
51286;SDS011;37364;46.974;18.916;2024-03-08T14:25:51;56.25;;;38.80;;
51286;SDS011;37364;46.974;18.916;2024-03-08T14:28:21;58.05;;;41.03;;
51286;SDS011;37364;46.974;18.916;2024-03-08T14:33:44;54.78;;;38.83;;
51286;SDS011;37364;46.974;18.916;2024-03-08T14:36:16;55.23;;;39.87;;
51286;SDS011;37364;46.974;18.916;2024-03-08T14:38:47;61.80;;;38.08;;
51286;SDS011;37364;46.974;18.916;2024-03-08T14:41:20;59.25;;;42.35;;
51286;SDS011;37364;46.974;18.916;2024-03-08T14:43:50;54.67;;;40.17;;
51286;SDS011;37364;46.974;18.916;2024-03-08T14:46:23;54.83;;;36.47;;
51286;SDS011;37364;46.974;18.916;2024-03-08T14:48:53;48.53;;;35.75;;
51286;SDS011;37364;46.974;18.916;2024-03-08T14:51:23;53.63;;;38.28;;
51286;SDS011;37364;46.974;18.916;2024-03-08T14:53:54;49.42;;;35.22;;
51286;SDS011;37364;46.974;18.916;2024-03-08T14:56:30;55.88;;;34.13;;
51286;SDS011;37364;46.974;18.916;2024-03-08T14:59:00;59.42;;;36.45;;
51286;SDS011;37364;46.974;18.916;2024-03-08T15:01:31;126.57;;;66.53;;
51286;SDS011;37364;46.974;18.916;2024-03-08T15:04:02;106.57;;;57.95;;